Saint Anthony Village, Minnesota
Current Conditions -  °F | °C
As of 3:53 PM on Sunday 21 Dec 2014 (Local Time) from KMIC Reporting Station
Light Rain Light Rain  
Wind Chill: 28°   Ceiling: 700
Heat Index: 36°   Visibility: 5mi
Dew Point: 34°   Wind: 10mph
Humidity: 93%   Direction: 160°SSE
Pressure: 29.72"   Gusts: NA
Location:  45.0516°N, 93.2549°W
Report Text: KMIC 212153Z 16009KT 5SM -RA BR OVC007 02/01 A2972 RMK AO2 SLP074 P0003 T00220011
Loading
Personal Weather Stations






























Interactive Weather Map New forecast layout! Learn more

10-Day Weather Forecast

Advertisements
Track Severe Weather on mobile